Time;durP1;ratioP1;P1;durP2;ratioP2;P2;SDS_P1;SDS_P2;PMS_P1;PMS_P2;Temp;Humidity;BMP_temperature;BMP_pressure;BME280_temperature;BME280_humidity;BME280_pressure;Samples;Min_cycle;Max_cycle;Signal;HPM_P1;HPM_P2
2021/05/05 00:01:52;;;;;;;0.20;0.20;;;7.00;80.30;;;;;;5075488;28;20496;-75
2021/05/05 00:04:19;;;;;;;1.67;0.30;;;7.00;80.30;;;;;;5057583;28;20051;-76
2021/05/05 00:06:45;;;;;;;2.50;0.43;;;7.00;80.30;;;;;;5092540;28;20032;-75
2021/05/05 00:09:11;;;;;;;1.50;0.38;;;7.00;80.30;;;;;;5092287;28;20052;-74
2021/05/05 00:11:37;;;;;;;0.38;0.30;;;7.00;80.20;;;;;;5092253;28;20127;-74
2021/05/05 00:14:04;;;;;;;0.95;0.43;;;7.00;80.20;;;;;;5073401;28;20047;-74
2021/05/05 00:16:31;;;;;;;1.02;0.43;;;7.10;80.20;;;;;;5057960;28;20489;-75
2021/05/05 00:18:57;;;;;;;0.47;0.30;;;7.10;80.20;;;;;;5092536;28;20104;-75
2021/05/05 00:21:23;;;;;;;0.57;0.50;;;7.10;80.10;;;;;;5074708;28;20147;-75
2021/05/05 00:23:49;;;;;;;1.08;0.40;;;7.10;80.10;;;;;;5074415;28;20051;-74
2021/05/05 00:26:15;;;;;;;0.85;0.40;;;7.10;80.10;;;;;;5074146;28;20045;-76
2021/05/05 00:28:41;;;;;;;0.25;0.20;;;7.10;80.10;;;;;;5070884;28;20131;-73
2021/05/05 00:31:07;;;;;;;0.80;0.40;;;7.10;80.10;;;;;;5092158;28;20082;-74
2021/05/05 00:33:33;;;;;;;1.20;0.30;;;7.10;80.00;;;;;;5074471;28;20493;-76
2021/05/05 00:35:59;;;;;;;1.77;0.43;;;7.10;79.90;;;;;;5094521;28;20040;-76
2021/05/05 00:38:25;;;;;;;0.60;0.38;;;7.10;79.90;;;;;;5073199;28;20471;-75
2021/05/05 00:40:50;;;;;;;1.77;0.60;;;7.10;79.90;;;;;;5079854;28;20043;-78
2021/05/05 00:43:16;;;;;;;1.48;0.50;;;7.20;79.90;;;;;;5076990;28;20052;-75
2021/05/05 00:45:41;;;;;;;2.10;0.45;;;7.10;79.80;;;;;;5074100;28;20085;-74
2021/05/05 00:48:08;;;;;;;2.38;0.47;;;7.10;79.80;;;;;;5093792;28;20040;-77
2021/05/05 00:50:33;;;;;;;1.23;0.40;;;7.20;79.90;;;;;;5040964;28;20051;-76
2021/05/05 00:52:59;;;;;;;1.77;0.57;;;7.10;79.80;;;;;;5099577;28;20040;-76
2021/05/05 00:55:25;;;;;;;0.45;0.40;;;7.10;79.80;;;;;;5046085;28;20046;-73
2021/05/05 00:57:51;;;;;;;0.40;0.40;;;7.10;79.80;;;;;;5095582;28;20071;-75
2021/05/05 01:00:19;;;;;;;0.88;0.43;;;7.10;79.90;;;;;;5079735;28;20062;-77
2021/05/05 01:02:45;;;;;;;0.52;0.40;;;7.10;79.90;;;;;;5099000;28;20114;-77
2021/05/05 01:05:13;;;;;;;1.05;0.30;;;7.10;79.90;;;;;;5081217;28;20035;-76
2021/05/05 01:07:39;;;;;;;0.82;0.60;;;7.10;79.90;;;;;;5095471;28;20059;-76
2021/05/05 01:10:08;;;;;;;1.55;0.80;;;7.10;79.90;;;;;;5074294;28;20040;-73
2021/05/05 01:12:34;;;;;;;1.70;0.80;;;7.10;79.90;;;;;;5094731;28;20040;-74
2021/05/05 01:15:00;;;;;;;1.23;0.60;;;7.10;80.00;;;;;;5073424;28;20347;-75
2021/05/05 01:17:27;;;;;;;0.98;0.60;;;7.00;80.00;;;;;;5080362;28;20044;-76
2021/05/05 01:19:53;;;;;;;1.25;0.60;;;7.00;80.10;;;;;;5063599;28;20155;-75
2021/05/05 01:22:18;;;;;;;0.60;0.50;;;7.00;80.20;;;;;;5062332;28;20087;-78
2021/05/05 01:24:44;;;;;;;0.75;0.38;;;6.90;80.30;;;;;;5101040;28;20039;-77
2021/05/05 01:27:10;;;;;;;1.25;0.60;;;6.90;80.30;;;;;;5101335;28;20566;-77
2021/05/05 01:29:38;;;;;;;0.65;0.50;;;6.90;80.40;;;;;;5097966;28;20494;-74
2021/05/05 01:32:05;;;;;;;0.50;0.50;;;6.90;80.40;;;;;;5094484;28;20401;-74
2021/05/05 01:34:33;;;;;;;1.27;0.63;;;6.90;80.40;;;;;;5076382;28;20398;-75
2021/05/05 01:36:59;;;;;;;0.90;0.70;;;6.80;80.40;;;;;;5097679;28;20074;-75
2021/05/05 01:39:26;;;;;;;3.10;1.02;;;6.90;80.40;;;;;;5094591;28;20044;-74
2021/05/05 01:41:52;;;;;;;1.17;0.45;;;6.80;80.50;;;;;;5094904;28;20122;-72
2021/05/05 01:44:32;;;;;;;0.90;0.47;;;6.70;80.70;;;;;;5094217;28;20097;-73
2021/05/05 01:46:58;;;;;;;0.70;0.60;;;6.60;80.90;;;;;;5095541;28;20123;-74
2021/05/05 01:49:26;;;;;;;1.13;0.38;;;6.50;81.10;;;;;;5094710;28;20040;-74
2021/05/05 01:51:56;;;;;;;1.08;0.50;;;6.40;81.30;;;;;;5096651;28;20039;-74
2021/05/05 01:54:24;;;;;;;1.05;0.38;;;6.30;81.50;;;;;;5081759;28;20166;-75
2021/05/05 01:56:50;;;;;;;0.30;0.30;;;6.30;81.60;;;;;;5102226;28;20035;-75
2021/05/05 01:59:16;;;;;;;0.43;0.30;;;6.30;81.80;;;;;;5081733;28;20093;-74
2021/05/05 02:01:42;;;;;;;1.50;0.40;;;6.20;81.80;;;;;;5060822;28;20043;-74
2021/05/05 02:04:08;;;;;;;0.30;0.22;;;6.20;81.90;;;;;;5075715;28;20036;-75
2021/05/05 02:06:34;;;;;;;0.88;0.47;;;6.20;81.90;;;;;;5080920;28;20045;-75
2021/05/05 02:09:00;;;;;;;0.55;0.38;;;6.10;81.90;;;;;;5078981;28;20102;-75
2021/05/05 02:11:27;;;;;;;0.52;0.30;;;6.10;82.00;;;;;;5100427;28;20397;-75
2021/05/05 02:13:53;;;;;;;1.40;0.50;;;6.10;82.00;;;;;;5064517;28;20402;-75
2021/05/05 02:16:19;;;;;;;0.50;0.45;;;6.10;82.00;;;;;;5081983;28;20035;-75
2021/05/05 02:18:45;;;;;;;1.13;0.30;;;6.10;82.10;;;;;;5067709;28;20090;-75
2021/05/05 02:21:11;;;;;;;1.95;0.52;;;6.10;82.10;;;;;;5086160;28;20071;-75
2021/05/05 02:23:37;;;;;;;1.55;0.70;;;6.00;82.00;;;;;;5082321;28;20033;-75
2021/05/05 02:26:03;;;;;;;1.42;0.40;;;6.00;82.10;;;;;;5105596;28;20043;-75
2021/05/05 02:28:31;;;;;;;0.50;0.50;;;6.00;82.10;;;;;;5102141;28;20108;-75
2021/05/05 02:30:57;;;;;;;1.65;0.47;;;6.00;82.10;;;;;;5097069;28;20069;-75
2021/05/05 02:33:24;;;;;;;1.45;0.40;;;6.00;82.20;;;;;;5078941;28;20040;-75
2021/05/05 02:35:50;;;;;;;1.08;0.40;;;6.00;82.10;;;;;;5094697;28;20126;-74
2021/05/05 02:38:16;;;;;;;0.50;0.35;;;6.00;82.20;;;;;;5075678;28;20155;-73
2021/05/05 02:40:44;;;;;;;1.85;0.30;;;6.00;82.30;;;;;;5093339;28;20067;-73
2021/05/05 02:43:10;;;;;;;0.77;0.20;;;6.00;82.30;;;;;;5057130;28;20032;-73
2021/05/05 02:45:35;;;;;;;0.45;0.30;;;6.00;82.30;;;;;;5075270;28;20109;-73
2021/05/05 02:48:01;;;;;;;0.90;0.20;;;5.90;82.30;;;;;;5093380;28;20497;-74
2021/05/05 02:50:27;;;;;;;0.47;0.30;;;5.90;82.40;;;;;;5093835;28;20044;-75
2021/05/05 02:52:53;;;;;;;1.70;0.30;;;6.00;82.50;;;;;;5096720;28;20046;-76
2021/05/05 02:55:19;;;;;;;0.70;0.40;;;6.00;82.50;;;;;;5102939;28;20064;-77
2021/05/05 02:57:44;;;;;;;0.28;0.20;;;5.90;82.50;;;;;;5097643;28;20076;-76
2021/05/05 03:00:11;;;;;;;0.55;0.20;;;5.90;82.60;;;;;;5096430;28;20040;-75
2021/05/05 03:02:38;;;;;;;0.63;0.22;;;5.90;82.60;;;;;;5077718;28;20051;-75
2021/05/05 03:05:05;;;;;;;0.52;0.30;;;5.90;82.60;;;;;;5096920;28;20103;-75
2021/05/05 03:07:31;;;;;;;0.57;0.38;;;6.00;82.70;;;;;;5077728;28;20387;-75
2021/05/05 03:09:57;;;;;;;0.30;0.28;;;5.90;82.70;;;;;;5098516;28;20095;-75
2021/05/05 03:12:23;;;;;;;0.40;0.20;;;5.90;82.70;;;;;;5097865;28;20418;-75
2021/05/05 03:14:48;;;;;;;2.35;0.63;;;5.90;82.80;;;;;;5079101;28;20031;-75
2021/05/05 03:17:17;;;;;;;0.65;0.28;;;5.90;82.90;;;;;;5080680;28;20064;-76
2021/05/05 03:19:43;;;;;;;0.30;0.30;;;5.90;82.80;;;;;;5080225;28;20048;-76
2021/05/05 03:22:09;;;;;;;0.60;0.30;;;5.80;82.80;;;;;;5100880;28;20040;-76
2021/05/05 03:24:34;;;;;;;2.08;0.50;;;5.90;82.80;;;;;;5082970;28;20044;-76
2021/05/05 03:27:00;;;;;;;0.60;0.30;;;5.80;82.70;;;;;;5060078;28;20044;-75
2021/05/05 03:29:26;;;;;;;2.15;0.50;;;5.90;82.80;;;;;;5082019;28;20046;-76
2021/05/05 03:31:52;;;;;;;0.50;0.50;;;6.00;82.80;;;;;;5101771;28;20040;-76
2021/05/05 03:34:18;;;;;;;0.95;0.45;;;5.90;82.70;;;;;;5081832;28;20048;-76
2021/05/05 03:36:45;;;;;;;0.35;0.35;;;6.00;82.80;;;;;;5100961;28;20082;-75
2021/05/05 03:39:11;;;;;;;0.70;0.50;;;5.90;82.70;;;;;;5104572;28;20040;-75
2021/05/05 03:41:36;;;;;;;1.00;0.70;;;5.90;82.70;;;;;;5100744;28;20110;-75
2021/05/05 03:44:03;;;;;;;2.45;0.40;;;5.90;82.70;;;;;;5102732;28;20477;-76
2021/05/05 03:46:29;;;;;;;1.60;0.50;;;5.90;82.70;;;;;;5064736;28;20099;-75
2021/05/05 03:48:55;;;;;;;2.10;0.63;;;5.90;82.70;;;;;;5098340;28;20079;-75
2021/05/05 03:51:21;;;;;;;0.98;0.60;;;5.90;82.70;;;;;;5081017;28;20044;-75
2021/05/05 03:53:47;;;;;;;1.80;0.55;;;5.90;82.70;;;;;;5099384;28;20048;-75
2021/05/05 03:56:12;;;;;;;1.50;0.63;;;6.00;82.80;;;;;;5100335;28;20051;-75
2021/05/05 03:58:38;;;;;;;1.77;0.75;;;5.90;82.80;;;;;;5079474;28;20100;-75
2021/05/05 04:01:04;;;;;;;0.70;0.52;;;5.90;82.90;;;;;;5080226;28;20047;-76
2021/05/05 04:03:30;;;;;;;0.80;0.50;;;5.90;82.90;;;;;;5100996;28;20040;-75
2021/05/05 04:05:56;;;;;;;1.00;0.57;;;5.80;82.90;;;;;;5082756;28;20044;-75
2021/05/05 04:08:22;;;;;;;1.02;0.52;;;5.90;83.00;;;;;;5101253;28;20044;-75
2021/05/05 04:10:47;;;;;;;0.90;0.63;;;5.90;82.90;;;;;;5100699;28;20405;-76
2021/05/05 04:13:13;;;;;;;2.20;0.50;;;5.90;83.00;;;;;;5105549;28;20047;-76
2021/05/05 04:15:39;;;;;;;1.17;0.75;;;5.90;82.90;;;;;;5079468;28;20041;-75
2021/05/05 04:18:05;;;;;;;1.33;0.60;;;5.90;82.90;;;;;;5099815;28;20500;-76
2021/05/05 04:20:32;;;;;;;2.40;0.60;;;5.90;82.90;;;;;;5078793;28;20122;-76
2021/05/05 04:22:58;;;;;;;0.50;0.50;;;5.90;82.80;;;;;;5080960;28;20570;-76
2021/05/05 04:25:24;;;;;;;0.52;0.52;;;5.90;82.90;;;;;;5084473;28;20044;-76
2021/05/05 04:27:50;;;;;;;0.98;0.60;;;5.90;82.90;;;;;;5082409;28;20059;-73
2021/05/05 04:30:19;;;;;;;0.93;0.40;;;5.90;82.80;;;;;;5098163;28;20059;-75
2021/05/05 04:32:48;;;;;;;0.95;0.40;;;5.90;82.90;;;;;;5065547;28;20040;-75
2021/05/05 04:35:14;;;;;;;2.03;0.50;;;6.00;82.80;;;;;;5086893;28;20098;-76
2021/05/05 04:37:40;;;;;;;1.00;0.52;;;6.00;82.80;;;;;;5080222;28;20040;-76
2021/05/05 04:40:08;;;;;;;1.83;0.52;;;6.10;82.80;;;;;;5067799;28;20052;-73
2021/05/05 04:42:34;;;;;;;0.95;0.50;;;6.10;82.70;;;;;;5085709;28;20040;-74
2021/05/05 04:45:02;;;;;;;1.35;0.60;;;6.10;82.60;;;;;;5076945;28;20135;-74
2021/05/05 04:47:29;;;;;;;1.45;0.70;;;6.10;82.50;;;;;;5061612;28;20039;-74
2021/05/05 04:49:54;;;;;;;1.67;0.70;;;6.10;82.50;;;;;;5095764;28;20062;-74
2021/05/05 04:52:20;;;;;;;1.83;0.70;;;6.20;82.50;;;;;;5091480;28;20497;-74
2021/05/05 04:54:46;;;;;;;0.82;0.60;;;6.10;82.50;;;;;;5077489;28;20052;-75
2021/05/05 04:57:11;;;;;;;2.17;0.75;;;6.20;82.70;;;;;;5075020;28;20044;-75
2021/05/05 04:59:37;;;;;;;2.15;0.63;;;6.10;82.70;;;;;;5095889;28;20558;-74
2021/05/05 05:02:04;;;;;;;1.20;0.65;;;6.10;82.70;;;;;;5095692;28;20550;-73
2021/05/05 05:04:30;;;;;;;1.42;0.75;;;6.10;82.80;;;;;;5095443;28;20029;-74
2021/05/05 05:06:55;;;;;;;2.30;0.88;;;6.10;82.80;;;;;;5075725;28;20193;-74
2021/05/05 05:09:21;;;;;;;2.78;1.00;;;6.10;82.80;;;;;;5095277;28;20039;-73
2021/05/05 05:11:47;;;;;;;2.60;0.70;;;6.10;82.80;;;;;;5095177;28;20405;-74
2021/05/05 05:14:13;;;;;;;0.95;0.70;;;6.10;82.80;;;;;;5077394;28;20040;-75
2021/05/05 05:16:39;;;;;;;2.83;0.90;;;6.10;82.80;;;;;;5077079;28;20035;-74
2021/05/05 05:19:05;;;;;;;1.20;0.70;;;6.10;82.90;;;;;;5094872;28;20052;-74
2021/05/05 05:21:32;;;;;;;0.73;0.60;;;6.10;82.90;;;;;;5095427;28;20036;-74
2021/05/05 05:23:57;;;;;;;1.55;0.50;;;6.10;82.90;;;;;;5095119;28;20447;-74
2021/05/05 05:26:23;;;;;;;1.40;0.82;;;6.20;82.90;;;;;;5077178;28;20068;-74
2021/05/05 05:28:48;;;;;;;2.17;0.85;;;6.10;82.90;;;;;;5094811;28;20040;-74
2021/05/05 05:31:14;;;;;;;0.70;0.50;;;6.10;83.00;;;;;;5076887;28;20521;-74
2021/05/05 05:33:40;;;;;;;2.50;0.75;;;6.10;83.00;;;;;;5076575;28;20104;-74
2021/05/05 05:36:06;;;;;;;1.52;0.80;;;6.10;83.10;;;;;;5094734;28;20489;-74
2021/05/05 05:38:31;;;;;;;1.27;0.75;;;6.10;83.10;;;;;;5073374;28;20065;-74
2021/05/05 05:40:57;;;;;;;0.50;0.45;;;6.10;82.90;;;;;;5073587;28;20041;-74
2021/05/05 05:43:23;;;;;;;0.30;0.30;;;6.10;82.90;;;;;;5094319;28;20477;-73
2021/05/05 05:45:48;;;;;;;1.90;0.47;;;6.10;83.00;;;;;;5075700;28;20039;-74
2021/05/05 05:48:14;;;;;;;1.08;0.70;;;6.10;83.10;;;;;;5073475;28;20490;-74
2021/05/05 05:50:40;;;;;;;1.20;0.65;;;6.10;83.00;;;;;;5094518;28;20066;-73
2021/05/05 05:53:06;;;;;;;0.68;0.68;;;6.10;83.00;;;;;;5094346;28;20050;-74
2021/05/05 05:55:33;;;;;;;1.17;0.60;;;6.20;82.90;;;;;;5094642;28;20067;-75
2021/05/05 05:57:59;;;;;;;1.27;0.68;;;6.20;82.90;;;;;;5094633;28;20090;-74
2021/05/05 06:00:25;;;;;;;2.05;0.80;;;6.30;82.70;;;;;;5076339;28;20500;-74
2021/05/05 06:02:51;;;;;;;1.75;0.60;;;6.40;82.70;;;;;;5074720;28;20080;-74
2021/05/05 06:05:17;;;;;;;1.55;0.73;;;6.40;82.50;;;;;;5076188;28;20074;-74
2021/05/05 06:07:43;;;;;;;2.25;0.80;;;6.50;82.30;;;;;;5094364;28;20092;-73
2021/05/05 06:10:11;;;;;;;1.38;0.70;;;6.50;82.20;;;;;;5094436;28;20055;-73
2021/05/05 06:12:37;;;;;;;1.95;0.80;;;6.60;82.20;;;;;;5075773;28;20062;-74
2021/05/05 06:15:05;;;;;;;1.95;0.80;;;6.80;82.20;;;;;;5094247;28;20397;-74
2021/05/05 06:17:31;;;;;;;1.13;0.60;;;6.80;81.80;;;;;;5094336;28;20069;-74
2021/05/05 06:19:56;;;;;;;1.58;0.75;;;6.90;81.60;;;;;;5076350;28;20044;-74
2021/05/05 06:22:22;;;;;;;1.85;0.70;;;6.90;81.50;;;;;;5077929;28;20036;-74
2021/05/05 06:24:48;;;;;;;3.20;0.80;;;6.90;81.50;;;;;;5098776;28;20185;-75
2021/05/05 06:27:14;;;;;;;3.35;0.70;;;6.90;81.60;;;;;;5063593;28;20528;-74
2021/05/05 06:29:41;;;;;;;1.05;0.70;;;6.90;81.60;;;;;;5061205;28;20083;-75
2021/05/05 06:32:07;;;;;;;1.58;0.70;;;7.00;81.60;;;;;;5077247;28;20132;-74
2021/05/05 06:34:33;;;;;;;1.67;0.60;;;7.00;81.50;;;;;;5079933;28;20040;-75
2021/05/05 06:37:00;;;;;;;2.90;0.70;;;7.00;81.50;;;;;;5096099;28;20039;-75
2021/05/05 06:39:26;;;;;;;1.33;0.60;;;7.10;81.50;;;;;;5079771;28;20059;-75
2021/05/05 06:41:52;;;;;;;1.88;0.80;;;7.00;81.30;;;;;;5098426;28;20028;-75
2021/05/05 06:44:17;;;;;;;2.05;0.60;;;7.00;81.50;;;;;;5076920;28;20041;-75
2021/05/05 06:46:43;;;;;;;1.30;0.47;;;7.10;81.50;;;;;;5098342;28;20044;-75
2021/05/05 06:49:11;;;;;;;2.25;0.70;;;7.20;81.60;;;;;;5078959;28;20089;-75
2021/05/05 06:51:37;;;;;;;1.38;0.60;;;7.30;81.50;;;;;;5078888;28;20409;-75
2021/05/05 06:54:03;;;;;;;2.22;0.80;;;7.50;81.00;;;;;;5075820;28;20044;-75
2021/05/05 06:56:29;;;;;;;2.75;1.23;;;7.50;80.50;;;;;;5096892;28;20043;-75
2021/05/05 06:58:54;;;;;;;2.80;0.90;;;7.40;80.50;;;;;;5078630;28;20052;-75
2021/05/05 07:01:21;;;;;;;2.35;0.85;;;7.20;80.80;;;;;;5098395;28;20461;-75
2021/05/05 07:03:47;;;;;;;3.63;0.88;;;7.20;81.20;;;;;;5080986;28;20032;-74
2021/05/05 07:06:12;;;;;;;3.05;0.77;;;7.10;81.40;;;;;;5096629;28;20050;-75
2021/05/05 07:08:38;;;;;;;2.78;0.82;;;7.30;81.50;;;;;;5061456;28;20048;-75
2021/05/05 07:11:04;;;;;;;0.70;0.55;;;7.30;81.20;;;;;;5100216;28;20083;-75
2021/05/05 07:13:30;;;;;;;1.17;0.70;;;7.40;81.10;;;;;;5097493;28;20040;-76
2021/05/05 07:15:56;;;;;;;3.70;0.75;;;7.40;80.90;;;;;;5073766;28;20041;-74
2021/05/05 07:18:21;;;;;;;1.35;0.68;;;7.40;81.10;;;;;;5038918;28;20056;-74
2021/05/05 07:20:47;;;;;;;2.08;0.90;;;7.60;81.10;;;;;;5096164;28;20055;-74
2021/05/05 07:23:13;;;;;;;2.38;0.80;;;7.50;81.00;;;;;;5075324;28;20044;-75
2021/05/05 07:25:38;;;;;;;0.60;0.50;;;7.50;81.20;;;;;;5093997;28;20040;-75
2021/05/05 07:28:04;;;;;;;1.95;0.90;;;7.50;81.20;;;;;;5074786;28;20042;-74
2021/05/05 07:30:30;;;;;;;1.65;0.75;;;7.70;80.90;;;;;;5073831;28;20037;-75
2021/05/05 07:32:56;;;;;;;1.55;0.75;;;7.70;80.80;;;;;;5074828;28;20089;-73
2021/05/05 07:35:23;;;;;;;2.92;0.80;;;7.90;80.50;;;;;;5088839;28;20048;-74
2021/05/05 07:38:34;;;;;;;1.48;0.70;;;7.90;80.50;;;;;;5080813;28;20047;-74
2021/05/05 07:46:34;;;;;;;3.17;0.82;;;8.10;80.40;;;;;;5092483;28;20059;-73
2021/05/05 07:48:53;;;;;;;2.15;0.70;;;8.10;80.10;;;;;;5092328;28;20040;-73
2021/05/05 07:51:20;;;;;;;2.20;0.80;;;8.40;80.10;;;;;;5075943;28;20036;-75
2021/05/05 07:53:46;;;;;;;1.95;0.63;;;8.60;79.40;;;;;;5093232;28;20044;-74
2021/05/05 07:56:12;;;;;;;2.88;1.02;;;8.70;79.30;;;;;;5093464;28;20428;-72
2021/05/05 07:58:40;;;;;;;1.80;0.75;;;8.90;78.80;;;;;;5091584;28;20043;-72
2021/05/05 08:01:06;;;;;;;1.65;0.60;;;9.10;78.70;;;;;;5057764;28;20415;-72
2021/05/05 08:03:31;;;;;;;2.25;0.80;;;9.40;78.40;;;;;;5072471;28;20123;-72
2021/05/05 08:05:57;;;;;;;1.40;0.82;;;9.50;78.00;;;;;;5092675;28;20520;-71
2021/05/05 08:08:23;;;;;;;1.83;0.77;;;9.60;77.60;;;;;;5074790;28;20036;-72
2021/05/05 08:10:48;;;;;;;2.63;0.80;;;9.50;77.40;;;;;;5074024;28;20047;-73
2021/05/05 08:13:14;;;;;;;3.30;1.08;;;9.30;77.50;;;;;;5074352;28;20540;-74
2021/05/05 08:15:40;;;;;;;2.47;0.70;;;9.00;78.10;;;;;;5092776;28;20086;-72
2021/05/05 08:18:07;;;;;;;1.70;0.63;;;8.90;78.70;;;;;;5092270;28;20461;-72
2021/05/05 08:20:35;;;;;;;1.45;0.60;;;8.70;79.10;;;;;;5073271;28;20032;-71
2021/05/05 08:23:04;;;;;;;2.25;0.68;;;8.60;79.50;;;;;;5092180;28;20039;-72
2021/05/05 08:25:29;;;;;;;2.10;0.77;;;8.40;79.90;;;;;;5092182;28;20036;-74
2021/05/05 08:27:55;;;;;;;2.65;0.68;;;8.40;80.20;;;;;;5091912;28;20043;-72
2021/05/05 08:30:21;;;;;;;1.48;0.57;;;8.50;80.10;;;;;;5091819;28;20101;-72
2021/05/05 08:32:47;;;;;;;2.35;0.70;;;8.60;79.80;;;;;;5091989;28;20066;-72
2021/05/05 08:35:13;;;;;;;2.28;0.60;;;8.60;79.70;;;;;;5092079;28;20497;-72
2021/05/05 08:37:39;;;;;;;1.73;0.60;;;8.70;79.40;;;;;;5092358;28;20506;-73
2021/05/05 08:40:09;;;;;;;1.50;0.47;;;8.80;79.10;;;;;;5038661;28;20115;-74
2021/05/05 08:42:34;;;;;;;1.75;0.60;;;8.80;78.80;;;;;;5074176;28;20044;-74
2021/05/05 08:45:00;;;;;;;1.38;0.60;;;8.80;78.70;;;;;;5072130;28;20044;-73
2021/05/05 08:47:27;;;;;;;2.13;0.70;;;8.90;78.80;;;;;;5073573;28;20044;-73
2021/05/05 08:49:53;;;;;;;3.22;0.77;;;9.00;78.60;;;;;;5091803;28;20044;-74
2021/05/05 08:52:19;;;;;;;1.00;0.50;;;8.90;78.30;;;;;;5056957;28;20047;-78
2021/05/05 08:54:46;;;;;;;0.82;0.40;;;9.10;78.30;;;;;;5073734;28;20044;-76
2021/05/05 08:57:15;;;;;;;1.05;0.63;;;9.20;78.20;;;;;;5057832;28;20454;-76
2021/05/05 08:59:41;;;;;;;1.60;0.65;;;9.40;77.90;;;;;;5073936;28;20036;-75
2021/05/05 09:02:07;;;;;;;4.03;0.75;;;9.50;77.20;;;;;;5073772;28;20126;-74
2021/05/05 09:04:33;;;;;;;2.42;0.90;;;9.60;76.90;;;;;;5088883;28;20047;-74
2021/05/05 09:07:00;;;;;;;4.82;1.08;;;9.70;76.70;;;;;;5092032;28;20537;-75
2021/05/05 09:09:45;;;;;;;3.00;0.95;;;9.70;76.60;;;;;;5091919;28;20123;-75
2021/05/05 09:12:16;;;;;;;3.10;1.10;;;9.70;76.30;;;;;;5092049;28;20048;-74
2021/05/05 09:14:54;;;;;;;3.70;1.25;;;9.40;76.40;;;;;;5058446;28;20040;-75
2021/05/05 09:17:23;;;;;;;2.58;0.80;;;9.10;77.20;;;;;;5095346;28;20506;-77
2021/05/05 09:19:49;;;;;;;3.20;0.82;;;9.00;77.60;;;;;;5059972;28;20124;-76
2021/05/05 09:22:36;;;;;;;2.42;0.80;;;9.10;78.00;;;;;;5077109;28;20505;-75
2021/05/05 09:25:04;;;;;;;2.55;0.70;;;9.20;77.90;;;;;;5072591;28;20051;-75
2021/05/05 09:27:33;;;;;;;3.17;0.82;;;9.50;77.60;;;;;;5093170;28;20040;-76
2021/05/05 09:30:00;;;;;;;2.58;0.80;;;9.60;76.90;;;;;;5059930;28;20044;-75
2021/05/05 09:32:26;;;;;;;3.60;1.00;;;9.60;76.70;;;;;;5076863;28;20439;-75
2021/05/05 09:34:58;;;;;;;3.10;0.88;;;9.60;76.80;;;;;;5077901;28;20040;-74
2021/05/05 09:37:25;;;;;;;4.53;1.08;;;9.40;76.80;;;;;;5080426;28;20504;-76
2021/05/05 09:40:02;;;;;;;3.30;1.02;;;9.20;77.00;;;;;;5095281;28;20106;-74
2021/05/05 09:42:30;;;;;;;4.57;1.00;;;9.10;77.50;;;;;;5102095;28;20061;-75
2021/05/05 09:44:59;;;;;;;3.33;0.90;;;9.10;77.60;;;;;;5075679;28;20045;-75
2021/05/05 09:47:41;;;;;;;3.72;0.90;;;9.30;77.20;;;;;;5094570;28;20449;-75
2021/05/05 09:50:07;;;;;;;4.68;1.23;;;9.40;76.80;;;;;;5080347;28;20044;-73
2021/05/05 09:52:33;;;;;;;3.80;1.15;;;9.40;76.30;;;;;;5099089;28;20047;-74
2021/05/05 09:55:02;;;;;;;2.40;0.85;;;9.50;76.50;;;;;;5096907;28;20485;-75
2021/05/05 09:57:31;;;;;;;1.95;0.98;;;9.60;76.00;;;;;;5095835;28;20107;-74
2021/05/05 10:00:16;;;;;;;1.05;0.60;;;9.60;75.90;;;;;;5074923;28;20555;-74
2021/05/05 10:02:48;;;;;;;2.42;0.80;;;9.80;75.70;;;;;;5094159;28;20032;-74
2021/05/05 10:05:26;;;;;;;1.27;0.50;;;9.80;75.40;;;;;;5095598;28;20123;-73
2021/05/05 10:07:57;;;;;;;1.88;0.75;;;10.00;75.30;;;;;;5078405;28;20032;-75
2021/05/05 10:10:29;;;;;;;1.02;0.50;;;10.10;74.90;;;;;;5096223;28;20426;-73
2021/05/05 10:12:58;;;;;;;1.85;0.55;;;10.20;74.60;;;;;;5096172;28;20047;-74
2021/05/05 10:15:24;;;;;;;2.03;0.82;;;10.30;74.50;;;;;;5084692;28;20158;-75
2021/05/05 10:17:52;;;;;;;1.70;0.77;;;10.20;74.10;;;;;;5078205;28;20394;-75
2021/05/05 10:20:23;;;;;;;1.75;0.77;;;10.30;74.50;;;;;;5099866;28;20072;-74
2021/05/05 10:22:54;;;;;;;1.55;0.70;;;10.30;74.10;;;;;;5078452;28;20051;-75
2021/05/05 10:25:20;;;;;;;3.90;1.00;;;10.30;73.80;;;;;;5076487;28;20036;-76
2021/05/05 10:27:47;;;;;;;3.10;0.95;;;10.20;74.00;;;;;;5075415;28;20040;-75
2021/05/05 10:30:15;;;;;;;1.67;0.63;;;10.10;74.30;;;;;;5095322;28;20436;-76
2021/05/05 10:32:43;;;;;;;1.67;0.50;;;10.20;74.40;;;;;;5060511;28;20184;-76
2021/05/05 10:35:14;;;;;;;3.92;0.80;;;10.00;74.40;;;;;;5093583;28;20068;-75
2021/05/05 10:37:45;;;;;;;1.00;0.60;;;9.80;74.80;;;;;;5094339;28;20048;-75
2021/05/05 10:40:19;;;;;;;1.58;0.70;;;9.80;75.40;;;;;;5057220;28;20131;-75
2021/05/05 10:42:58;;;;;;;2.15;0.73;;;9.90;75.30;;;;;;5074304;28;20439;-74
2021/05/05 10:45:37;;;;;;;3.28;1.10;;;10.10;74.90;;;;;;5059077;28;20032;-77
2021/05/05 10:48:10;;;;;;;2.05;0.95;;;10.30;74.60;;;;;;5058779;28;20037;-72
2021/05/05 10:50:54;;;;;;;2.42;0.63;;;10.50;74.10;;;;;;5093428;28;20595;-73
2021/05/05 10:53:37;;;;;;;3.67;1.15;;;10.70;73.70;;;;;;5094173;28;20036;-72
2021/05/05 10:56:22;;;;;;;3.65;1.08;;;10.90;73.10;;;;;;5093228;28;20040;-74
2021/05/05 10:58:59;;;;;;;3.30;1.08;;;10.70;73.30;;;;;;5075020;28;20048;-74
2021/05/05 11:01:43;;;;;;;1.65;0.80;;;10.70;73.60;;;;;;5093162;28;20085;-73
2021/05/05 11:04:14;;;;;;;3.22;0.90;;;11.10;73.40;;;;;;5093944;28;20040;-74
2021/05/05 11:06:41;;;;;;;2.47;0.90;;;11.10;72.60;;;;;;5093661;28;20032;-72
2021/05/05 11:09:40;;;;;;;3.85;1.10;;;11.00;72.60;;;;;;5093287;28;20331;-73
2021/05/05 11:12:06;;;;;;;2.63;1.00;;;11.00;72.20;;;;;;5080657;28;20467;-73
2021/05/05 11:14:50;;;;;;;3.35;1.15;;;11.00;72.50;;;;;;5093650;28;20043;-73
2021/05/05 11:17:28;;;;;;;3.80;1.10;;;10.90;72.70;;;;;;5071934;28;20051;-73
2021/05/05 11:19:54;;;;;;;2.28;0.90;;;11.10;72.80;;;;;;5092817;28;20048;-73
2021/05/05 11:22:41;;;;;;;4.55;1.10;;;11.20;72.50;;;;;;5093001;28;20036;-73
2021/05/05 11:25:22;;;;;;;1.88;0.60;;;11.40;72.00;;;;;;5076880;28;20502;-74
2021/05/05 11:27:51;;;;;;;3.38;1.00;;;11.40;71.70;;;;;;5092322;28;20093;-73
2021/05/05 11:30:38;;;;;;;2.97;1.02;;;11.60;71.60;;;;;;5074927;28;20032;-74
2021/05/05 11:33:04;;;;;;;7.20;1.15;;;11.50;71.20;;;;;;5092963;28;20062;-73
2021/05/05 11:35:31;;;;;;;2.70;1.10;;;11.20;71.80;;;;;;5075213;28;20046;-73
2021/05/05 11:38:18;;;;;;;3.17;1.05;;;11.20;72.40;;;;;;5073886;28;20105;-73
2021/05/05 11:40:53;;;;;;;3.65;1.45;;;11.20;72.40;;;;;;5092860;28;20509;-72
2021/05/05 11:43:20;;;;;;;4.20;1.55;;;11.40;72.10;;;;;;5041607;28;20044;-73
2021/05/05 11:45:56;;;;;;;3.35;1.00;;;11.60;70.90;;;;;;5089465;28;20047;-73
2021/05/05 11:48:32;;;;;;;3.95;1.10;;;11.70;70.60;;;;;;5076451;28;20042;-74
2021/05/05 11:50:58;;;;;;;3.83;1.20;;;11.80;70.30;;;;;;5092508;28;20036;-73
2021/05/05 11:53:33;;;;;;;4.55;1.48;;;11.60;70.00;;;;;;5074355;28;20040;-73
2021/05/05 11:55:59;;;;;;;3.75;1.33;;;11.60;70.50;;;;;;5091116;28;20175;-74
2021/05/05 11:58:25;;;;;;;2.95;1.30;;;11.70;70.50;;;;;;5074307;28;20051;-73
2021/05/05 12:00:52;;;;;;;3.47;1.20;;;11.80;70.30;;;;;;5071266;28;20041;-73
2021/05/05 12:03:24;;;;;;;5.35;1.40;;;11.90;69.80;;;;;;5093098;28;20040;-72
2021/05/05 12:05:51;;;;;;;5.40;1.15;;;11.60;69.30;;;;;;5088878;28;20055;-73
2021/05/05 12:08:19;;;;;;;4.07;1.35;;;11.10;69.60;;;;;;5077442;28;20036;-74
2021/05/05 12:10:50;;;;;;;2.95;1.08;;;10.40;71.20;;;;;;5076192;28;20047;-74
2021/05/05 12:13:18;;;;;;;2.10;0.68;;;10.00;72.90;;;;;;5099321;28;20032;-77
2021/05/05 12:15:58;;;;;;;3.78;0.98;;;9.70;74.00;;;;;;5097009;28;20048;-75
2021/05/05 12:18:30;;;;;;;1.77;0.90;;;9.60;74.50;;;;;;5079097;28;20072;-74
2021/05/05 12:21:16;;;;;;;1.83;0.93;;;9.80;74.60;;;;;;5091069;28;20497;-74
2021/05/05 12:23:46;;;;;;;2.08;0.80;;;10.00;74.20;;;;;;5090525;28;20127;-74
2021/05/05 12:26:20;;;;;;;1.85;0.75;;;10.30;73.90;;;;;;5092869;28;20040;-74
2021/05/05 12:28:49;;;;;;;3.30;1.10;;;10.60;73.40;;;;;;5057370;28;20048;-73
2021/05/05 12:31:17;;;;;;;5.57;1.33;;;10.70;72.50;;;;;;5073442;28;20044;-75
2021/05/05 12:33:46;;;;;;;4.28;1.20;;;10.70;72.00;;;;;;5092404;28;20055;-75
2021/05/05 12:36:16;;;;;;;2.65;1.10;;;10.60;72.10;;;;;;5056385;28;20037;-76
2021/05/05 12:38:44;;;;;;;3.28;1.00;;;10.60;72.20;;;;;;5073943;28;20478;-74
2021/05/05 12:41:15;;;;;;;3.40;0.82;;;10.70;72.10;;;;;;5074130;28;20043;-75
2021/05/05 12:43:44;;;;;;;3.13;1.13;;;10.80;71.90;;;;;;5089289;28;20048;-75
2021/05/05 12:46:30;;;;;;;4.53;1.30;;;10.80;71.70;;;;;;5092152;28;20036;-74
2021/05/05 12:48:58;;;;;;;2.22;1.02;;;10.60;71.40;;;;;;5094421;28;20048;-75
2021/05/05 12:51:25;;;;;;;3.33;1.23;;;10.20;72.10;;;;;;5060600;28;20043;-73
2021/05/05 12:53:58;;;;;;;3.35;0.90;;;9.90;73.20;;;;;;5094427;28;20127;-75
2021/05/05 12:56:41;;;;;;;2.15;0.70;;;9.80;74.20;;;;;;5094196;28;20043;-75
2021/05/05 12:59:08;;;;;;;3.45;0.93;;;9.80;74.40;;;;;;5095832;28;20098;-72
2021/05/05 13:01:34;;;;;;;3.70;1.17;;;10.00;74.10;;;;;;5077004;28;20051;-73
2021/05/05 13:04:00;;;;;;;4.40;0.98;;;10.10;73.60;;;;;;5077358;28;20032;-73
2021/05/05 13:06:39;;;;;;;4.85;1.17;;;10.10;73.60;;;;;;5094854;28;20044;-73